Time;durP1;ratioP1;P1;durP2;ratioP2;P2;SDS_P1;SDS_P2;PMS_P1;PMS_P2;Temp;Humidity;BMP_temperature;BMP_pressure;BME280_temperature;BME280_humidity;BME280_pressure;Samples;Min_cycle;Max_cycle;Signal;HPM_P1;HPM_P2
2022/01/16 00:00:26;;;;;;;75.50;29.10;;;1.00;99.90;;;;;;5057272;28;20452;-68
2022/01/16 00:05:37;;;;;;;93.63;30.77;;;1.00;99.90;;;;;;5052101;28;21003;-68
2022/01/16 00:08:04;;;;;;;88.67;31.67;;;1.00;99.90;;;;;;5051892;28;20456;-68
2022/01/16 00:10:32;;;;;;;90.67;31.70;;;1.00;99.90;;;;;;5052551;28;20456;-68
2022/01/16 00:13:00;;;;;;;92.17;31.57;;;1.00;99.90;;;;;;5051208;28;20594;-68
2022/01/16 00:15:27;;;;;;;88.70;32.73;;;1.00;99.90;;;;;;5062515;28;20517;-68
2022/01/16 00:17:57;;;;;;;98.90;32.80;;;1.00;99.90;;;;;;5070723;28;20860;-68
2022/01/16 00:20:25;;;;;;;91.00;29.47;;;1.00;99.90;;;;;;5066013;28;20456;-68
2022/01/16 00:22:52;;;;;;;83.30;30.70;;;1.10;99.90;;;;;;5069547;28;20483;-68
2022/01/16 00:25:19;;;;;;;79.13;26.40;;;1.00;99.90;;;;;;5061284;28;20965;-68
2022/01/16 00:27:47;;;;;;;85.23;28.60;;;1.00;99.90;;;;;;5062149;28;20453;-68
2022/01/16 00:30:15;;;;;;;94.97;31.40;;;1.10;99.90;;;;;;5070102;28;20509;-68
2022/01/16 00:32:41;;;;;;;87.30;28.73;;;1.00;99.90;;;;;;5070460;28;20475;-68
2022/01/16 00:35:11;;;;;;;82.07;30.13;;;1.10;99.90;;;;;;5070641;28;20452;-68
2022/01/16 00:37:38;;;;;;;73.63;26.87;;;1.00;99.90;;;;;;5059560;28;20452;-68
2022/01/16 00:40:05;;;;;;;68.37;26.70;;;1.00;99.90;;;;;;5070996;28;20448;-68
2022/01/16 00:42:32;;;;;;;75.60;28.87;;;1.00;99.90;;;;;;5058070;28;20521;-68
2022/01/16 00:45:00;;;;;;;87.50;28.87;;;1.00;99.90;;;;;;5051496;28;21021;-68
2022/01/16 00:47:27;;;;;;;79.80;31.70;;;1.00;99.90;;;;;;5051287;28;20560;-68
2022/01/16 00:49:53;;;;;;;77.47;28.93;;;1.00;99.90;;;;;;5051940;28;20452;-68
2022/01/16 00:52:20;;;;;;;84.07;29.60;;;1.10;99.90;;;;;;5064691;28;20467;-68
2022/01/16 00:54:47;;;;;;;79.53;29.67;;;1.10;99.90;;;;;;5070260;28;20488;-68
2022/01/16 00:57:13;;;;;;;86.20;29.20;;;1.10;99.90;;;;;;5059317;28;20526;-68
2022/01/16 00:59:40;;;;;;;85.70;31.43;;;1.10;99.90;;;;;;5055302;28;20443;-68
2022/01/16 01:02:08;;;;;;;88.60;32.03;;;1.10;99.90;;;;;;5083412;22;21072;-77
2022/01/16 01:04:35;;;;;;;97.90;34.10;;;1.10;99.90;;;;;;5006362;28;20924;-79
2022/01/16 01:07:02;;;;;;;113.33;35.87;;;1.20;99.90;;;;;;5013155;28;20529;-79
2022/01/16 01:09:28;;;;;;;109.23;36.13;;;1.10;99.90;;;;;;5004708;28;20459;-79
2022/01/16 01:11:55;;;;;;;105.27;35.23;;;1.10;99.90;;;;;;5012855;28;20454;-79
2022/01/16 01:14:26;;;;;;;104.03;34.47;;;1.10;99.90;;;;;;5006919;28;20477;-78
2022/01/16 01:16:55;;;;;;;97.80;32.50;;;1.10;99.90;;;;;;5005542;28;20582;-78
2022/01/16 01:19:28;;;;;;;91.07;31.50;;;1.10;99.90;;;;;;4997591;28;20463;-79
2022/01/16 01:21:56;;;;;;;86.17;30.20;;;1.10;99.90;;;;;;4994899;28;20546;-78
2022/01/16 01:24:23;;;;;;;104.97;34.90;;;1.10;99.90;;;;;;4996520;28;20490;-78
2022/01/16 01:26:55;;;;;;;104.57;32.03;;;1.10;99.90;;;;;;4992997;28;20498;-79
2022/01/16 01:29:22;;;;;;;119.10;37.17;;;1.10;99.90;;;;;;4991810;28;20459;-78
2022/01/16 01:31:52;;;;;;;117.33;35.80;;;1.10;99.90;;;;;;4993115;28;20455;-78
2022/01/16 01:34:18;;;;;;;127.63;37.77;;;1.20;99.90;;;;;;4992972;28;20865;-78
2022/01/16 01:36:48;;;;;;;108.00;35.30;;;1.20;99.90;;;;;;4992601;28;20489;-78
2022/01/16 01:39:16;;;;;;;114.20;37.70;;;1.10;99.90;;;;;;4992233;28;20470;-78
2022/01/16 01:41:43;;;;;;;127.73;35.30;;;1.20;99.90;;;;;;4992764;28;20453;-78
2022/01/16 01:52:36;;;;;;;121.23;34.23;;;1.20;99.90;;;;;;4984152;28;20547;-78
2022/01/16 01:55:03;;;;;;;113.40;34.93;;;1.20;99.90;;;;;;4997204;28;20521;-78
2022/01/16 01:57:30;;;;;;;129.20;36.60;;;1.20;99.90;;;;;;4976356;28;20812;-79
2022/01/16 01:59:57;;;;;;;139.60;38.70;;;1.20;99.90;;;;;;4991803;28;20463;-79
2022/01/16 02:02:27;;;;;;;129.80;35.53;;;1.20;99.90;;;;;;4992759;28;20537;-78
2022/01/16 02:04:53;;;;;;;139.27;38.47;;;1.20;99.90;;;;;;5005728;28;20486;-79
2022/01/16 02:07:20;;;;;;;110.23;31.83;;;1.30;99.90;;;;;;5010886;28;20870;-78
2022/01/16 02:09:48;;;;;;;124.87;34.23;;;1.20;99.90;;;;;;4993564;28;20458;-78
2022/01/16 02:12:15;;;;;;;107.83;30.17;;;1.20;99.90;;;;;;4992142;28;20462;-78
2022/01/16 02:14:55;;;;;;;117.07;31.10;;;1.20;99.90;;;;;;4999873;28;20498;-78
2022/01/16 02:28:25;;;;;;;110.67;32.57;;;1.10;99.90;;;;;;4985934;28;20508;-78
2022/01/16 02:31:14;;;;;;;116.63;33.20;;;1.20;99.90;;;;;;4993099;28;20474;-79
2022/01/16 02:36:33;;;;;;;120.63;34.20;;;1.10;99.90;;;;;;5005368;28;20442;-78
2022/01/16 02:39:06;;;;;;;122.87;36.10;;;1.10;99.90;;;;;;4992276;28;20895;-78
2022/01/16 02:41:32;;;;;;;128.43;35.40;;;1.00;99.90;;;;;;4992026;28;20462;-78
2022/01/16 02:44:00;;;;;;;124.83;33.80;;;1.00;99.90;;;;;;5004690;28;20495;-78
2022/01/16 02:46:39;;;;;;;130.50;35.77;;;1.10;99.90;;;;;;4994895;28;20475;-78
2022/01/16 02:49:18;;;;;;;122.50;34.47;;;1.20;99.90;;;;;;5015520;28;20522;-78
2022/01/16 02:51:45;;;;;;;121.90;32.07;;;1.10;99.90;;;;;;4993353;28;20503;-78
2022/01/16 02:54:13;;;;;;;113.57;31.60;;;1.10;99.90;;;;;;4991973;28;20525;-78
2022/01/16 02:56:40;;;;;;;107.57;28.93;;;1.10;99.90;;;;;;5002207;28;20462;-78
2022/01/16 02:59:08;;;;;;;101.17;28.50;;;1.10;99.90;;;;;;5011270;28;20466;-79
2022/01/16 03:01:35;;;;;;;111.03;27.67;;;1.10;99.90;;;;;;5011382;28;20773;-78
2022/01/16 03:04:02;;;;;;;93.90;28.50;;;1.10;99.90;;;;;;5011125;28;20581;-78
2022/01/16 03:06:29;;;;;;;108.00;27.97;;;1.10;99.90;;;;;;5008503;28;20504;-78
2022/01/16 03:08:56;;;;;;;105.27;28.00;;;1.00;99.90;;;;;;4994369;28;20506;-79
2022/01/16 03:11:34;;;;;;;130.07;30.37;;;1.00;99.90;;;;;;4994804;28;20462;-78
2022/01/16 03:14:01;;;;;;;119.60;29.40;;;1.10;99.90;;;;;;4998338;28;20478;-78
2022/01/16 03:16:27;;;;;;;129.90;27.27;;;1.10;99.90;;;;;;5013640;28;20941;-79
2022/01/16 03:21:54;;;;;;;148.73;29.20;;;1.00;99.90;;;;;;5014443;28;20445;-78
2022/01/16 03:24:22;;;;;;;121.03;28.60;;;1.00;99.90;;;;;;5008474;28;20522;-78
2022/01/16 03:26:50;;;;;;;99.27;26.30;;;1.10;99.90;;;;;;5005089;28;20451;-78
2022/01/16 03:29:16;;;;;;;94.23;26.80;;;1.10;99.90;;;;;;4997870;28;20459;-78
2022/01/16 03:31:43;;;;;;;99.50;27.40;;;1.00;99.90;;;;;;4994452;28;20459;-78
2022/01/16 03:34:10;;;;;;;97.80;24.83;;;1.00;99.90;;;;;;5000620;28;20475;-78
2022/01/16 03:36:37;;;;;;;98.90;25.87;;;1.10;99.90;;;;;;4998939;28;20451;-78
2022/01/16 03:39:04;;;;;;;102.20;26.20;;;1.00;99.90;;;;;;5003535;28;20451;-79
2022/01/16 03:41:33;;;;;;;100.57;23.07;;;1.10;99.90;;;;;;4994246;28;20570;-78
2022/01/16 03:44:02;;;;;;;104.63;24.60;;;1.00;99.90;;;;;;4994677;28;20518;-78
2022/01/16 03:46:34;;;;;;;78.43;23.50;;;1.10;99.90;;;;;;4993799;28;21022;-78
2022/01/16 03:49:02;;;;;;;72.00;22.30;;;1.00;99.90;;;;;;5006446;28;21021;-78
2022/01/16 03:51:30;;;;;;;72.30;19.93;;;1.10;99.90;;;;;;5002172;28;20638;-78
2022/01/16 03:53:56;;;;;;;50.13;16.63;;;1.20;99.90;;;;;;5006386;28;20471;-78
2022/01/16 03:56:23;;;;;;;53.07;16.83;;;1.00;99.90;;;;;;4993902;28;20456;-78
2022/01/16 03:58:50;;;;;;;49.43;17.53;;;1.00;99.90;;;;;;4993633;28;20459;-80
2022/01/16 04:01:18;;;;;;;40.30;14.80;;;1.00;99.90;;;;;;5003839;28;20452;-78
2022/01/16 04:03:44;;;;;;;40.83;15.17;;;0.90;99.90;;;;;;4996287;28;20479;-78
2022/01/16 04:06:11;;;;;;;44.07;15.43;;;0.90;99.90;;;;;;5012685;28;20527;-78
2022/01/16 04:08:38;;;;;;;44.57;15.30;;;0.90;99.90;;;;;;4995879;28;20459;-78
2022/01/16 04:11:05;;;;;;;33.53;13.73;;;0.90;99.90;;;;;;5012390;28;20450;-78
2022/01/16 04:13:32;;;;;;;32.30;10.37;;;0.90;99.90;;;;;;5012844;28;21038;-78
2022/01/16 04:15:59;;;;;;;32.77;13.30;;;0.90;99.90;;;;;;5010862;28;20468;-78
2022/01/16 04:18:27;;;;;;;25.00;10.60;;;0.90;99.90;;;;;;5008636;28;20459;-78
2022/01/16 04:20:53;;;;;;;28.53;11.00;;;0.90;99.90;;;;;;4993901;28;20447;-78
2022/01/16 04:23:20;;;;;;;31.70;13.87;;;0.90;99.90;;;;;;4993432;28;20530;-78
2022/01/16 04:25:47;;;;;;;33.63;13.47;;;0.90;99.90;;;;;;4995541;28;20487;-79
2022/01/16 04:28:14;;;;;;;35.90;14.70;;;0.90;99.90;;;;;;4998032;28;20994;-78
2022/01/16 04:30:40;;;;;;;33.80;13.33;;;0.90;99.90;;;;;;5005096;28;20941;-78
2022/01/16 04:33:07;;;;;;;36.43;15.77;;;0.90;99.90;;;;;;5010321;28;20819;-78
2022/01/16 04:35:35;;;;;;;40.33;13.63;;;0.90;99.90;;;;;;5013193;28;20450;-78
2022/01/16 04:38:02;;;;;;;33.23;13.47;;;1.10;99.90;;;;;;5001683;28;20827;-78
2022/01/16 04:40:28;;;;;;;36.57;14.07;;;1.00;99.90;;;;;;4995240;28;20459;-77
2022/01/16 04:45:39;;;;;;;33.30;13.60;;;1.00;99.90;;;;;;4992514;28;20891;-77
2022/01/16 04:48:06;;;;;;;35.40;13.17;;;1.00;99.90;;;;;;4993155;28;20524;-77
2022/01/16 04:50:32;;;;;;;33.87;14.40;;;1.00;99.90;;;;;;5011043;28;20450;-77
2022/01/16 04:53:00;;;;;;;36.87;14.87;;;1.00;99.90;;;;;;4993063;28;20890;-78
2022/01/16 04:55:28;;;;;;;30.70;13.10;;;1.00;99.90;;;;;;4992467;28;20455;-77
2022/01/16 04:57:54;;;;;;;31.37;14.07;;;1.00;99.90;;;;;;5001482;28;20517;-79
2022/01/16 05:00:21;;;;;;;31.73;13.70;;;1.00;99.90;;;;;;4997815;28;20447;-78
2022/01/16 05:02:48;;;;;;;32.00;13.37;;;1.10;99.90;;;;;;4994018;28;20538;-77
2022/01/16 05:05:15;;;;;;;35.63;14.23;;;1.10;99.90;;;;;;4996239;28;20525;-77
2022/01/16 05:07:42;;;;;;;41.93;16.40;;;1.10;99.90;;;;;;4991946;28;20459;-77
2022/01/16 05:10:10;;;;;;;36.90;14.97;;;1.10;99.90;;;;;;5008228;28;20497;-77
2022/01/16 05:12:40;;;;;;;41.30;16.70;;;1.10;99.90;;;;;;4995111;28;20852;-77
2022/01/16 05:17:54;;;;;;;35.70;14.60;;;1.10;99.90;;;;;;4989880;28;20470;-78
2022/01/16 05:20:21;;;;;;;41.70;16.50;;;1.10;99.90;;;;;;5009751;28;20465;-77
2022/01/16 05:22:47;;;;;;;48.90;16.50;;;1.10;99.90;;;;;;5008919;28;20470;-77
2022/01/16 05:25:17;;;;;;;44.70;16.30;;;1.10;99.90;;;;;;4994571;28;20907;-77
2022/01/16 05:27:44;;;;;;;40.07;15.20;;;1.10;99.90;;;;;;4991696;28;20998;-77
2022/01/16 05:30:13;;;;;;;35.30;15.00;;;1.20;99.90;;;;;;4994446;28;20489;-77
2022/01/16 05:32:39;;;;;;;40.80;15.40;;;1.20;99.90;;;;;;4991190;28;20529;-77
2022/01/16 05:35:07;;;;;;;32.90;13.20;;;1.20;99.90;;;;;;4992013;28;20447;-77
2022/01/16 05:37:34;;;;;;;38.27;15.50;;;1.30;99.90;;;;;;5001854;28;20458;-78
2022/01/16 05:40:00;;;;;;;44.03;15.80;;;1.20;99.90;;;;;;4993874;28;20462;-77
2022/01/16 05:42:29;;;;;;;41.23;14.63;;;1.20;99.90;;;;;;4991454;28;21007;-77
2022/01/16 05:44:56;;;;;;;36.07;13.93;;;1.20;99.90;;;;;;4991735;28;20943;-78
2022/01/16 05:47:22;;;;;;;39.33;14.33;;;1.30;99.90;;;;;;4990673;28;20556;-78
2022/01/16 05:49:49;;;;;;;35.87;13.73;;;1.30;99.90;;;;;;4994478;28;20587;-77
2022/01/16 05:52:16;;;;;;;40.10;15.47;;;1.20;99.90;;;;;;4993183;28;20467;-77
2022/01/16 05:54:42;;;;;;;35.40;14.40;;;1.20;99.90;;;;;;4991478;28;20521;-77
2022/01/16 05:57:09;;;;;;;42.20;15.57;;;1.20;99.90;;;;;;4990940;28;21208;-77
2022/01/16 05:59:37;;;;;;;39.67;14.40;;;1.10;99.90;;;;;;5002088;28;20461;-78
2022/01/16 06:02:04;;;;;;;36.70;15.30;;;1.10;99.90;;;;;;4998127;28;20455;-77
2022/01/16 06:04:31;;;;;;;40.97;16.20;;;1.00;99.90;;;;;;4990995;28;20494;-77
2022/01/16 06:06:58;;;;;;;41.90;15.60;;;1.00;99.90;;;;;;4991199;28;20514;-77
2022/01/16 06:09:26;;;;;;;42.63;16.43;;;1.00;99.90;;;;;;4991561;28;20458;-77
2022/01/16 06:11:54;;;;;;;41.80;17.07;;;1.00;99.90;;;;;;4990853;28;21038;-77
2022/01/16 06:14:21;;;;;;;46.50;15.70;;;0.90;99.90;;;;;;4994029;28;20566;-77
2022/01/16 06:16:50;;;;;;;44.37;17.70;;;0.90;99.90;;;;;;4992662;28;20455;-78
2022/01/16 06:19:16;;;;;;;42.63;18.47;;;1.10;99.90;;;;;;5002308;28;20458;-78
2022/01/16 06:21:43;;;;;;;46.07;17.67;;;1.00;99.90;;;;;;5010199;28;20458;-78
2022/01/16 06:24:10;;;;;;;51.20;17.67;;;1.00;99.90;;;;;;5010466;28;20850;-78
2022/01/16 06:26:36;;;;;;;45.47;16.87;;;1.00;99.90;;;;;;4997169;28;20545;-78
2022/01/16 06:29:04;;;;;;;38.53;15.83;;;1.00;99.90;;;;;;4994297;28;20497;-78
2022/01/16 06:31:31;;;;;;;45.93;16.63;;;1.00;99.90;;;;;;5001558;28;20454;-77
2022/01/16 06:34:01;;;;;;;37.23;15.03;;;1.10;99.90;;;;;;5010791;28;20482;-79
2022/01/16 06:36:28;;;;;;;37.10;14.03;;;1.10;99.90;;;;;;5010576;28;20500;-77
2022/01/16 06:38:55;;;;;;;27.83;12.73;;;1.10;99.90;;;;;;4996886;28;20502;-79
2022/01/16 06:41:22;;;;;;;30.80;13.07;;;1.00;99.90;;;;;;4998636;28;20463;-78
2022/01/16 06:43:49;;;;;;;31.27;13.90;;;1.00;99.90;;;;;;5008812;28;20532;-78
2022/01/16 06:46:16;;;;;;;33.40;14.53;;;1.20;99.90;;;;;;5014083;28;20490;-78
2022/01/16 06:48:42;;;;;;;34.87;14.33;;;1.00;99.90;;;;;;5013861;28;20938;-78
2022/01/16 06:51:10;;;;;;;31.37;14.20;;;1.00;99.90;;;;;;5014717;28;20454;-78
2022/01/16 06:53:37;;;;;;;35.87;14.50;;;1.00;99.90;;;;;;5002655;28;20479;-78
2022/01/16 06:56:04;;;;;;;44.43;17.80;;;1.00;99.90;;;;;;5000287;28;20512;-78
2022/01/16 06:58:31;;;;;;;41.90;17.00;;;1.00;99.90;;;;;;5000103;28;20459;-79
2022/01/16 07:00:57;;;;;;;39.17;17.60;;;1.00;99.90;;;;;;4998009;28;20950;-78
2022/01/16 07:03:24;;;;;;;37.97;16.70;;;1.00;99.90;;;;;;5027274;23;20571;-69
2022/01/16 07:05:50;;;;;;;40.83;17.40;;;1.00;99.90;;;;;;5013645;28;20540;-68
2022/01/16 07:08:22;;;;;;;40.10;15.87;;;1.00;99.90;;;;;;5013616;28;20449;-69
2022/01/16 07:10:49;;;;;;;40.87;16.80;;;0.90;99.90;;;;;;5013372;28;20466;-67
2022/01/16 07:13:16;;;;;;;43.83;17.80;;;1.00;99.90;;;;;;5012781;28;20470;-67
2022/01/16 07:15:43;;;;;;;30.90;14.43;;;1.00;99.90;;;;;;5010760;28;20454;-68
2022/01/16 07:18:09;;;;;;;36.73;15.60;;;1.00;99.90;;;;;;4998431;28;20454;-67
2022/01/16 07:20:36;;;;;;;41.67;15.30;;;1.10;99.90;;;;;;5010309;28;20868;-67
2022/01/16 07:23:03;;;;;;;35.60;15.20;;;1.00;99.90;;;;;;4982757;28;20889;-67
2022/01/16 07:25:31;;;;;;;33.77;15.20;;;1.00;99.90;;;;;;5012017;28;20540;-67
2022/01/16 07:27:57;;;;;;;41.03;16.50;;;1.10;99.90;;;;;;5004799;28;20901;-67
2022/01/16 07:30:24;;;;;;;37.17;15.47;;;1.00;99.90;;;;;;5009557;28;20603;-67
2022/01/16 07:32:50;;;;;;;37.83;17.07;;;1.00;99.90;;;;;;5010173;28;20482;-67
2022/01/16 07:35:17;;;;;;;46.27;18.80;;;1.00;99.90;;;;;;4993940;28;20444;-67
2022/01/16 07:37:44;;;;;;;45.70;19.33;;;1.10;99.90;;;;;;4978513;28;21031;-67
2022/01/16 07:40:12;;;;;;;47.37;18.20;;;1.10;99.90;;;;;;5003035;28;20459;-67
2022/01/16 07:42:40;;;;;;;42.83;17.87;;;1.10;99.90;;;;;;5010128;28;20458;-67
2022/01/16 07:45:08;;;;;;;38.83;17.83;;;1.10;99.90;;;;;;5011242;28;20542;-67
2022/01/16 07:47:35;;;;;;;40.50;17.20;;;1.10;99.90;;;;;;5000723;28;20882;-67
2022/01/16 07:50:01;;;;;;;37.77;16.43;;;1.10;99.90;;;;;;5003019;28;20819;-66
2022/01/16 07:52:28;;;;;;;42.20;18.10;;;1.20;99.90;;;;;;5007361;28;20799;-67
2022/01/16 07:54:55;;;;;;;39.60;16.80;;;1.10;99.90;;;;;;5011711;28;20458;-67
2022/01/16 07:57:21;;;;;;;41.87;18.40;;;1.10;99.90;;;;;;5012053;28;20450;-67
2022/01/16 07:59:50;;;;;;;38.93;17.23;;;1.10;99.90;;;;;;4987501;28;20499;-67
2022/01/16 08:02:17;;;;;;;35.83;17.17;;;1.10;99.90;;;;;;4994842;28;20459;-68
2022/01/16 08:04:43;;;;;;;44.67;17.67;;;1.10;99.90;;;;;;4988678;28;20499;-67
2022/01/16 08:07:10;;;;;;;36.67;16.23;;;1.10;99.90;;;;;;4997663;28;20450;-66
2022/01/16 08:09:38;;;;;;;40.87;14.97;;;1.10;99.90;;;;;;4987721;28;20476;-67
2022/01/16 08:12:06;;;;;;;26.93;13.83;;;1.10;99.90;;;;;;4995555;28;21164;-67
2022/01/16 08:14:33;;;;;;;20.50;11.40;;;1.10;99.90;;;;;;5012363;28;20516;-67
2022/01/16 08:17:02;;;;;;;21.40;10.47;;;1.20;99.90;;;;;;4994525;28;20974;-67
2022/01/16 08:19:29;;;;;;;21.10;9.90;;;1.20;99.90;;;;;;4989957;28;20838;-67
2022/01/16 08:21:56;;;;;;;19.63;9.80;;;1.20;99.90;;;;;;4990828;28;20472;-67
2022/01/16 08:24:23;;;;;;;21.17;10.70;;;1.20;99.90;;;;;;5000701;28;20532;-67
2022/01/16 08:26:50;;;;;;;23.87;10.90;;;1.20;99.90;;;;;;4987922;28;20488;-67
2022/01/16 08:29:17;;;;;;;19.90;10.60;;;1.20;99.90;;;;;;5000799;28;20451;-67
2022/01/16 08:31:44;;;;;;;22.83;10.97;;;1.30;99.90;;;;;;4980678;28;20447;-67
2022/01/16 08:34:12;;;;;;;23.20;11.20;;;1.20;99.90;;;;;;4997816;28;20471;-67
2022/01/16 08:36:39;;;;;;;24.30;11.53;;;1.10;99.90;;;;;;4992788;28;20505;-66
2022/01/16 08:39:06;;;;;;;21.87;11.10;;;1.20;99.90;;;;;;5003325;28;20536;-66
2022/01/16 08:41:33;;;;;;;26.47;12.07;;;1.20;99.90;;;;;;5003041;28;20451;-67
2022/01/16 08:44:00;;;;;;;33.27;12.70;;;1.20;99.90;;;;;;4998837;28;20898;-67
2022/01/16 08:46:27;;;;;;;33.17;13.27;;;1.20;99.90;;;;;;4995866;28;20548;-68
2022/01/16 08:48:54;;;;;;;24.37;11.73;;;1.20;99.90;;;;;;5008921;28;20454;-67
2022/01/16 08:51:22;;;;;;;36.27;13.37;;;1.20;99.90;;;;;;4996874;28;20460;-66
2022/01/16 08:53:49;;;;;;;29.10;13.40;;;1.20;99.90;;;;;;5011311;28;20839;-66
2022/01/16 08:56:16;;;;;;;26.50;13.10;;;1.20;99.90;;;;;;5011889;28;20454;-67
2022/01/16 08:58:42;;;;;;;33.10;13.90;;;1.20;99.90;;;;;;4990453;28;20513;-67
2022/01/16 09:01:09;;;;;;;32.93;14.37;;;1.20;99.90;;;;;;5004358;28;20481;-67
2022/01/16 09:03:38;;;;;;;31.57;14.80;;;1.20;99.90;;;;;;5011130;28;20539;-67
2022/01/16 09:06:05;;;;;;;36.40;16.10;;;1.20;99.90;;;;;;5001621;28;20574;-66
2022/01/16 09:08:33;;;;;;;30.83;14.27;;;1.20;99.90;;;;;;4977281;28;20515;-66
2022/01/16 09:11:01;;;;;;;32.60;14.70;;;1.20;99.90;;;;;;5004855;28;20454;-67
2022/01/16 09:13:27;;;;;;;35.53;15.43;;;1.30;99.90;;;;;;5007838;28;20835;-67
2022/01/16 09:15:54;;;;;;;33.83;15.37;;;1.20;99.90;;;;;;4999547;28;20516;-67
2022/01/16 09:18:20;;;;;;;32.57;14.77;;;1.30;99.90;;;;;;5008993;28;20454;-66
2022/01/16 09:20:48;;;;;;;41.07;16.90;;;1.30;99.90;;;;;;5011161;28;20446;-66
2022/01/16 09:23:14;;;;;;;25.83;13.60;;;1.30;99.90;;;;;;5011287;28;20478;-66
2022/01/16 09:25:43;;;;;;;38.63;15.90;;;1.40;99.90;;;;;;5001032;28;20534;-66
2022/01/16 09:28:09;;;;;;;33.03;15.93;;;1.40;99.90;;;;;;5001192;28;20826;-67
2022/01/16 09:30:37;;;;;;;35.47;16.33;;;1.40;99.90;;;;;;4985984;28;20451;-67
2022/01/16 09:33:04;;;;;;;38.43;17.17;;;1.40;99.90;;;;;;5002636;28;20488;-67
2022/01/16 09:35:33;;;;;;;37.23;16.40;;;1.40;99.90;;;;;;5011146;28;20457;-67
2022/01/16 09:38:00;;;;;;;35.87;16.53;;;1.40;99.90;;;;;;5006511;28;20457;-67
2022/01/16 09:40:27;;;;;;;78.90;32.13;;;1.40;99.90;;;;;;5010926;28;20528;-66
2022/01/16 09:42:56;;;;;;;47.27;20.37;;;1.50;99.90;;;;;;4989102;28;20995;-66
2022/01/16 09:45:23;;;;;;;54.67;20.70;;;1.50;99.90;;;;;;4997949;28;20517;-66
2022/01/16 09:47:50;;;;;;;45.70;19.60;;;1.50;99.90;;;;;;5006119;28;20978;-67
2022/01/16 09:50:19;;;;;;;48.07;20.30;;;1.60;99.90;;;;;;5010362;28;20450;-66
2022/01/16 09:52:47;;;;;;;50.43;20.80;;;1.60;99.90;;;;;;5010164;28;20901;-66
2022/01/16 09:55:14;;;;;;;52.77;20.00;;;1.60;99.90;;;;;;4971541;28;20503;-67
2022/01/16 09:57:41;;;;;;;55.57;22.17;;;1.60;99.90;;;;;;4974167;28;20459;-65
2022/01/16 10:00:13;;;;;;;50.50;20.40;;;1.70;99.90;;;;;;4996978;28;20509;-66
2022/01/16 10:02:39;;;;;;;49.97;21.53;;;1.80;99.90;;;;;;5001860;28;20508;-66
2022/01/16 10:05:22;;;;;;;65.10;25.53;;;1.80;99.90;;;;;;5009886;28;20458;-66
2022/01/16 10:07:49;;;;;;;57.83;24.20;;;1.90;99.90;;;;;;4995345;28;20550;-67
2022/01/16 10:10:16;;;;;;;60.27;23.43;;;1.90;99.90;;;;;;4994247;28;21008;-67
2022/01/16 10:12:48;;;;;;;60.10;23.90;;;1.90;99.90;;;;;;5009879;28;20877;-67
2022/01/16 10:15:21;;;;;;;65.93;23.53;;;2.00;99.90;;;;;;5006491;28;20977;-67
2022/01/16 10:17:50;;;;;;;56.20;21.73;;;1.90;99.90;;;;;;4994010;28;20443;-67
2022/01/16 10:20:17;;;;;;;61.67;24.17;;;1.90;99.90;;;;;;5006210;28;20512;-67
2022/01/16 10:22:46;;;;;;;63.27;24.50;;;1.90;99.90;;;;;;5013946;28;20489;-67
2022/01/16 10:25:14;;;;;;;65.47;24.30;;;1.90;99.90;;;;;;5009762;28;20450;-67
2022/01/16 10:27:42;;;;;;;70.40;23.67;;;1.90;99.90;;;;;;5001145;28;20536;-67
2022/01/16 10:30:12;;;;;;;59.87;22.83;;;1.90;99.90;;;;;;5001612;28;20459;-67
2022/01/16 10:32:42;;;;;;;59.03;23.27;;;1.90;99.90;;;;;;4994259;28;20888;-66
2022/01/16 10:35:12;;;;;;;62.47;24.17;;;1.90;99.90;;;;;;5000039;28;20478;-67
2022/01/16 10:37:41;;;;;;;71.60;26.10;;;1.90;99.90;;;;;;4997464;28;20981;-66
2022/01/16 10:40:11;;;;;;;65.50;27.07;;;1.90;99.90;;;;;;5000666;28;20533;-67
2022/01/16 10:42:39;;;;;;;57.73;25.07;;;1.90;99.90;;;;;;4996980;28;20489;-66
2022/01/16 10:45:09;;;;;;;55.77;24.00;;;1.90;99.90;;;;;;4998732;28;20530;-67
2022/01/16 10:47:38;;;;;;;60.00;23.20;;;1.90;99.90;;;;;;4999889;28;20479;-67
2022/01/16 10:50:15;;;;;;;57.43;24.10;;;2.00;99.90;;;;;;4999118;28;20462;-66
2022/01/16 10:52:55;;;;;;;64.33;25.40;;;2.00;99.90;;;;;;4991567;28;20480;-66
2022/01/16 10:55:25;;;;;;;57.10;22.23;;;2.00;99.90;;;;;;4981217;28;21144;-66
2022/01/16 10:58:01;;;;;;;54.57;21.73;;;2.00;99.90;;;;;;4989602;28;20457;-66
2022/01/16 11:00:27;;;;;;;61.80;24.50;;;2.00;99.90;;;;;;5006198;28;20533;-66
2022/01/16 11:02:54;;;;;;;53.67;21.83;;;2.10;99.90;;;;;;4997972;28;20537;-66
2022/01/16 11:05:24;;;;;;;51.30;21.97;;;2.10;99.90;;;;;;4983328;28;20470;-66
2022/01/16 11:07:58;;;;;;;61.10;22.53;;;2.10;99.90;;;;;;4990792;28;20492;-67
2022/01/16 11:10:30;;;;;;;51.97;23.40;;;2.20;99.90;;;;;;5012595;28;21024;-67
2022/01/16 11:12:59;;;;;;;57.07;22.60;;;2.30;99.90;;;;;;5007993;28;20465;-66
2022/01/16 11:15:26;;;;;;;53.67;21.00;;;2.30;99.90;;;;;;4990173;28;20451;-66
2022/01/16 11:17:53;;;;;;;48.07;21.10;;;2.40;99.90;;;;;;5006849;28;20450;-65
2022/01/16 11:20:28;;;;;;;48.50;20.80;;;2.40;99.90;;;;;;5001523;28;20455;-66
2022/01/16 11:23:02;;;;;;;54.97;21.17;;;2.40;99.90;;;;;;4993230;28;21146;-67
2022/01/16 11:25:33;;;;;;;46.90;20.23;;;2.50;99.90;;;;;;4993559;28;20502;-67
2022/01/16 11:28:03;;;;;;;37.73;14.23;;;2.50;99.90;;;;;;4988510;28;20495;-68
2022/01/16 11:30:31;;;;;;;49.50;20.73;;;2.50;99.90;;;;;;4993100;28;20451;-68
2022/01/16 11:32:59;;;;;;;71.63;23.50;;;2.50;99.90;;;;;;5010629;28;20465;-68
2022/01/16 11:35:28;;;;;;;55.83;20.07;;;2.50;99.90;;;;;;5013116;28;20455;-67
2022/01/16 11:37:57;;;;;;;54.17;21.40;;;2.60;99.90;;;;;;4994813;28;20511;-68
2022/01/16 11:40:27;;;;;;;48.83;21.67;;;2.60;99.90;;;;;;5002311;28;20446;-68
2022/01/16 11:43:27;;;;;;;44.27;20.20;;;2.70;99.90;;;;;;4995715;28;20566;-68
2022/01/16 11:46:02;;;;;;;52.93;21.70;;;2.80;99.90;;;;;;4976042;28;20451;-67
2022/01/16 11:48:38;;;;;;;47.10;20.10;;;2.90;99.90;;;;;;5000260;28;21000;-67
2022/01/16 11:51:07;;;;;;;51.33;21.50;;;3.00;99.90;;;;;;5013056;28;20514;-67
2022/01/16 11:54:06;;;;;;;45.27;19.90;;;3.10;99.90;;;;;;5012738;28;20528;-68
2022/01/16 11:56:57;;;;;;;50.03;20.17;;;3.10;99.90;;;;;;4994862;28;20463;-68
2022/01/16 11:59:25;;;;;;;50.57;22.20;;;3.20;99.90;;;;;;4993104;28;20534;-67
2022/01/16 12:01:54;;;;;;;47.73;21.87;;;3.20;99.90;;;;;;4993261;28;20454;-67
2022/01/16 12:05:03;;;;;;;46.43;20.87;;;3.20;99.90;;;;;;5012107;28;20473;-67
2022/01/16 12:07:49;;;;;;;48.23;21.33;;;3.30;99.90;;;;;;4998059;28;20491;-68
2022/01/16 12:10:50;;;;;;;45.80;18.57;;;3.30;99.90;;;;;;5012433;28;20532;-69
2022/01/16 12:13:45;;;;;;;43.60;19.07;;;3.30;99.90;;;;;;5006152;28;20470;-67
2022/01/16 12:16:36;;;;;;;44.37;18.80;;;3.30;99.90;;;;;;4995413;28;20448;-67
2022/01/16 12:19:41;;;;;;;47.93;19.83;;;3.30;99.90;;;;;;4988239;28;20506;-67
2022/01/16 12:22:09;;;;;;;46.20;18.93;;;3.30;99.90;;;;;;5009884;28;20501;-67
2022/01/16 12:24:40;;;;;;;43.80;18.97;;;3.40;99.90;;;;;;5002571;28;20476;-67
2022/01/16 12:27:45;;;;;;;48.80;20.27;;;3.40;99.90;;;;;;4985570;28;20475;-68
2022/01/16 12:30:38;;;;;;;46.73;20.47;;;3.40;99.90;;;;;;5007501;28;20454;-67
2022/01/16 12:33:10;;;;;;;41.17;18.07;;;3.40;99.90;;;;;;5005434;28;20471;-67
2022/01/16 12:36:14;;;;;;;42.87;19.00;;;3.40;99.90;;;;;;5011806;28;20446;-67
2022/01/16 12:38:46;;;;;;;47.30;20.33;;;3.50;99.90;;;;;;5012095;28;20450;-67
2022/01/16 12:41:16;;;;;;;43.40;20.17;;;3.50;99.90;;;;;;5004548;28;20869;-67
2022/01/16 12:43:50;;;;;;;48.70;21.60;;;3.50;99.90;;;;;;4986604;28;20487;-68
2022/01/16 12:46:22;;;;;;;51.87;20.10;;;3.50;99.90;;;;;;4985627;28;20536;-68
2022/01/16 12:48:51;;;;;;;59.00;20.27;;;3.50;99.90;;;;;;5000033;28;20495;-67
2022/01/16 12:51:19;;;;;;;50.03;19.77;;;3.50;99.90;;;;;;5010776;28;20471;-68
2022/01/16 12:53:48;;;;;;;70.50;27.33;;;3.50;99.90;;;;;;5011578;28;20496;-67
2022/01/16 12:56:25;;;;;;;44.73;20.70;;;3.60;99.90;;;;;;5003942;28;20458;-67
2022/01/16 12:58:54;;;;;;;44.50;20.07;;;3.60;99.90;;;;;;4996864;28;20455;-67
2022/01/16 13:01:21;;;;;;;44.80;19.77;;;3.70;99.90;;;;;;4994279;28;20520;-67
2022/01/16 13:03:48;;;;;;;44.07;19.00;;;3.80;99.90;;;;;;5003125;22;20500;-88
2022/01/16 13:06:24;;;;;;;43.87;19.40;;;3.80;99.90;;;;;;4950246;28;20456;-88
2022/01/16 13:08:56;;;;;;;39.17;18.03;;;3.90;99.90;;;;;;4966180;28;20453;-88
2022/01/16 13:11:26;;;;;;;45.20;19.80;;;3.90;99.90;;;;;;4956298;28;20445;-88
2022/01/16 13:13:54;;;;;;;46.20;18.90;;;3.90;99.90;;;;;;4958384;28;20459;-89
2022/01/16 13:16:22;;;;;;;41.63;18.83;;;3.90;99.90;;;;;;4965423;28;20457;-88
2022/01/16 13:19:13;;;;;;;46.13;19.50;;;3.90;99.90;;;;;;4966272;28;20460;-90